Flight Track Log - Related Links

Times and Time Zones

All times are in EDT time to prevent confusion due to time zone crossing. See the GJS6234 flight status page for this flight to view local times or setup timezone preferences in your user account.

Time Position Orientation Groundspeed Altitude Reporting Facility
EDT Latitude Longitude Course Direction KTS MPH feet Rate Location/Type
Sat 05:54:57 PM 43.1097 -76.1319 205° Southwest 146 168 1,400  Level Boston Center
Sat 05:56:04 PM 43.0692 -76.1581 205° Southwest 237 273 4,300 3,049 Climbing Boston Center
Sat 05:56:59 PM 43.0450 -76.0714 111° Southeast 286 329 7,600 2,974 Climbing Boston Center
Sat 05:57:59 PM 43.0056 -76.0008 127° Southeast 291 335 10,000 2,650 Climbing Boston Center
Sat 05:58:59 PM 42.9275 -75.8914 134° Southeast 308 354 12,900 2,850 Climbing Boston Center
Sat 05:59:59 PM 42.8556 -75.7908 134° Southeast 337 388 15,700 2,318 Climbing Boston Center
Sat 06:01:11 PM 42.7653 -75.6617 134° Southeast 369 425 18,000 958 Climbing Boston Center
Sat 06:02:23 PM 42.6650 -75.5236 135° Southeast 403 464 18,000  Level Boston Center
Sat 06:03:23 PM 42.5806 -75.4067 134° Southeast 424 488 18,000  Level Boston Center
Sat 06:04:23 PM 42.4961 -75.2872 134° Southeast 429 494 18,000  Level Boston Center
Sat 06:05:23 PM 42.4306 -75.1492 123° Southeast 429 494 18,000  Level Boston Center
Sat 06:06:23 PM 42.3778 -75.0006 116° Southeast 432 497 18,000  Level Boston Center
Sat 06:07:23 PM 42.3247 -74.8525 116° Southeast 432 497 18,000  Level Boston Center
Sat 06:08:23 PM 42.2694 -74.7100 118° Southeast 432 497 18,000  Level Boston Center
Sat 06:09:23 PM 42.2158 -74.5622 116° Southeast 437 503 18,000  Level Boston Center
Sat 06:10:23 PM 42.1603 -74.4119 116° Southeast 437 503 18,000  Level Boston Center
Sat 06:11:23 PM 42.1003 -74.2644 119° Southeast 442 509 18,000 -200 Level Boston Center
Sat 06:12:23 PM 42.0100 -74.1697 142° Southeast 414 476 17,600 -600 Descending Boston Center
Sat 06:13:23 PM 41.9128 -74.1139 157° South 414 476 16,800 -1,300 Descending Boston Center
Sat 06:14:23 PM 41.8053 -74.0556 158° South 414 476 15,000 -1,800 Descending Boston Center
Sat 06:15:23 PM 41.6894 -73.9914 158° South 414 476 13,200 -1,700 Descending Boston Center
Sat 06:16:23 PM 41.6047 -73.9447 158° South 385 443 11,600 -1,752 Descending Boston Center
Sat 06:17:16 PM 41.5167 -73.9000 159° South 314 361 9,900 -1,381 Descending New York TRACON
Sat 06:18:16 PM 41.4500 -73.8500 151° Southeast 293 337 9,000 -300 Descending New York TRACON
Sat 06:20:16 PM 41.3000 -73.7667 157° South 302 348 9,000 -233 Level New York TRACON
Sat 06:21:16 PM 41.2333 -73.7000 143° Southeast 300 345 8,300 -1,211 Descending New York TRACON
Sat 06:22:10 PM 41.1667 -73.6500 151° Southeast 285 328 6,700 -1,750 Descending New York TRACON
Sat 06:23:16 PM 41.1000 -73.6167 159° South 268 308 4,800 -1,350 Descending New York TRACON
Sat 06:24:10 PM 41.0500 -73.6500 207° Southwest 252 290 4,000 -600 Descending New York TRACON
Sat 06:25:16 PM 40.9833 -73.7000 210° Southwest 247 284 3,600 -500 Descending New York TRACON
Sat 06:26:10 PM 40.9333 -73.7500 217° Southwest 202 232 3,000 -600 Descending New York TRACON
Sat 06:27:16 PM 40.8833 -73.7833 207° Southwest 170 196 2,400 -667 Descending New York TRACON
Sat 06:28:16 PM 40.8500 -73.8167 217° Southwest 141 162 1,600 -789 Descending New York TRACON
Sat 06:29:10 PM 40.8333 -73.8333 217° Southwest 138 159 900 -700 Descending New York TRACON
Sat 06:30:16 PM 40.7833 -73.8667 207° Southwest 130 150 200 -636 Descending New York TRACON
Sat 06:32:00 PM 40.7772 -73.8726 180° South  Level Estimated
Sat 06:39:00 PM 40.7772 -73.8726 180° South  Level Estimated

Login

Don't have an account? Register now (free) for customized features, flight alerts, and more!